Terminal Aerodrome Forecast
Issued by NWS Greer, SC

Home | Current Version | Previous Version | Text Only | Print | Product List | Glossary On
Versions: 1 2 3 4 5 6 7 8 9 10 11 12 13 14 15 16 17 18 19 20 21 22 23 24 25
000
FTUS42 KGSP 031614 AAE
TAFGSP
TAF AMD
KGSP 031614Z 0316/0412 24009KT P6SM VCSH SCT009 OVC035
      TEMPO 0316/0317 -SHRA OVC009
     FM031700 23012G18KT P6SM VCSH BKN035 OVC120
     FM032000 24015G25KT P6SM -SHRA VCTS BKN040CB OVC120
     FM040000 24009KT P6SM BKN120=

USA.gov is the U.S. government's official web portal to all federal, state and local government web resources and services.